sensor_id;sensor_type;location;lat;lon;timestamp;P1;durP1;ratioP1;P2;durP2;ratioP2
52608;SDS011;38503;48.544;12.142;2022-08-19T00:01:39;20.40;;;18.43;;
52608;SDS011;38503;48.544;12.142;2022-08-19T00:04:08;20.03;;;18.03;;
52608;SDS011;38503;48.544;12.142;2022-08-19T00:06:37;20.50;;;18.40;;
52608;SDS011;38503;48.544;12.142;2022-08-19T00:09:07;22.10;;;19.97;;
52608;SDS011;38503;48.544;12.142;2022-08-19T00:11:37;22.83;;;20.63;;
52608;SDS011;38503;48.544;12.142;2022-08-19T00:14:08;21.90;;;19.90;;
52608;SDS011;38503;48.544;12.142;2022-08-19T00:16:37;21.83;;;19.50;;
52608;SDS011;38503;48.544;12.142;2022-08-19T00:19:05;21.87;;;19.87;;
52608;SDS011;38503;48.544;12.142;2022-08-19T00:21:33;21.23;;;19.23;;
52608;SDS011;38503;48.544;12.142;2022-08-19T00:24:04;21.67;;;19.63;;
52608;SDS011;38503;48.544;12.142;2022-08-19T00:26:32;21.87;;;19.80;;
52608;SDS011;38503;48.544;12.142;2022-08-19T00:29:00;22.27;;;20.17;;
52608;SDS011;38503;48.544;12.142;2022-08-19T00:31:27;21.07;;;19.07;;
52608;SDS011;38503;48.544;12.142;2022-08-19T00:33:54;22.23;;;20.13;;
52608;SDS011;38503;48.544;12.142;2022-08-19T00:36:21;21.77;;;19.53;;
52608;SDS011;38503;48.544;12.142;2022-08-19T00:38:47;21.70;;;19.40;;
52608;SDS011;38503;48.544;12.142;2022-08-19T00:41:16;22.47;;;20.37;;
52608;SDS011;38503;48.544;12.142;2022-08-19T00:44:00;23.67;;;21.27;;
52608;SDS011;38503;48.544;12.142;2022-08-19T00:46:33;24.60;;;22.30;;
52608;SDS011;38503;48.544;12.142;2022-08-19T00:49:05;22.80;;;20.67;;
52608;SDS011;38503;48.544;12.142;2022-08-19T00:51:36;22.53;;;20.53;;
52608;SDS011;38503;48.544;12.142;2022-08-19T00:54:03;22.10;;;20.00;;
52608;SDS011;38503;48.544;12.142;2022-08-19T00:56:30;22.50;;;20.37;;
52608;SDS011;38503;48.544;12.142;2022-08-19T00:58:58;23.30;;;20.97;;
52608;SDS011;38503;48.544;12.142;2022-08-19T01:01:27;23.17;;;20.87;;
52608;SDS011;38503;48.544;12.142;2022-08-19T01:03:55;22.63;;;20.20;;
52608;SDS011;38503;48.544;12.142;2022-08-19T01:06:24;22.43;;;20.40;;
52608;SDS011;38503;48.544;12.142;2022-08-19T01:08:53;24.03;;;21.67;;
52608;SDS011;38503;48.544;12.142;2022-08-19T01:11:20;22.47;;;20.47;;
52608;SDS011;38503;48.544;12.142;2022-08-19T01:13:47;23.90;;;21.70;;
52608;SDS011;38503;48.544;12.142;2022-08-19T01:16:17;24.40;;;22.03;;
52608;SDS011;38503;48.544;12.142;2022-08-19T01:18:46;23.80;;;21.60;;
52608;SDS011;38503;48.544;12.142;2022-08-19T01:21:22;24.07;;;21.83;;
52608;SDS011;38503;48.544;12.142;2022-08-19T01:24:12;23.37;;;21.20;;
52608;SDS011;38503;48.544;12.142;2022-08-19T01:26:40;23.53;;;21.43;;
52608;SDS011;38503;48.544;12.142;2022-08-19T01:29:09;22.37;;;20.23;;
52608;SDS011;38503;48.544;12.142;2022-08-19T01:31:37;22.10;;;20.00;;
52608;SDS011;38503;48.544;12.142;2022-08-19T01:34:05;20.70;;;18.80;;
52608;SDS011;38503;48.544;12.142;2022-08-19T01:39:13;20.37;;;18.33;;
52608;SDS011;38503;48.544;12.142;2022-08-19T01:41:43;19.20;;;17.43;;
52608;SDS011;38503;48.544;12.142;2022-08-19T01:44:10;19.80;;;18.00;;
52608;SDS011;38503;48.544;12.142;2022-08-19T01:46:44;19.17;;;17.17;;
52608;SDS011;38503;48.544;12.142;2022-08-19T01:49:14;18.87;;;17.13;;
52608;SDS011;38503;48.544;12.142;2022-08-19T01:51:41;19.83;;;18.03;;
52608;SDS011;38503;48.544;12.142;2022-08-19T01:54:09;19.97;;;18.00;;
52608;SDS011;38503;48.544;12.142;2022-08-19T01:56:38;19.63;;;17.73;;
52608;SDS011;38503;48.544;12.142;2022-08-19T01:59:08;19.00;;;17.23;;
52608;SDS011;38503;48.544;12.142;2022-08-19T02:01:38;18.23;;;16.53;;
52608;SDS011;38503;48.544;12.142;2022-08-19T02:04:06;18.43;;;16.63;;
52608;SDS011;38503;48.544;12.142;2022-08-19T02:06:34;18.07;;;16.17;;
52608;SDS011;38503;48.544;12.142;2022-08-19T02:09:02;16.07;;;14.47;;
52608;SDS011;38503;48.544;12.142;2022-08-19T02:11:32;16.57;;;14.97;;
52608;SDS011;38503;48.544;12.142;2022-08-19T02:14:03;16.13;;;14.63;;
52608;SDS011;38503;48.544;12.142;2022-08-19T02:16:31;16.77;;;15.07;;
52608;SDS011;38503;48.544;12.142;2022-08-19T02:18:59;16.30;;;13.97;;
52608;SDS011;38503;48.544;12.142;2022-08-19T02:21:29;15.90;;;14.40;;
52608;SDS011;38503;48.544;12.142;2022-08-19T02:23:56;15.50;;;14.00;;
52608;SDS011;38503;48.544;12.142;2022-08-19T02:26:24;16.47;;;14.97;;
52608;SDS011;38503;48.544;12.142;2022-08-19T02:28:53;13.97;;;12.73;;
52608;SDS011;38503;48.544;12.142;2022-08-19T02:31:21;13.87;;;12.57;;
52608;SDS011;38503;48.544;12.142;2022-08-19T02:33:51;13.87;;;12.67;;
52608;SDS011;38503;48.544;12.142;2022-08-19T02:36:22;15.83;;;14.37;;
52608;SDS011;38503;48.544;12.142;2022-08-19T02:38:50;14.63;;;13.33;;
52608;SDS011;38503;48.544;12.142;2022-08-19T02:41:30;14.87;;;13.47;;
52608;SDS011;38503;48.544;12.142;2022-08-19T02:43:59;15.40;;;14.00;;
52608;SDS011;38503;48.544;12.142;2022-08-19T02:46:50;15.67;;;14.17;;
52608;SDS011;38503;48.544;12.142;2022-08-19T02:49:18;16.03;;;14.53;;
52608;SDS011;38503;48.544;12.142;2022-08-19T02:51:46;16.80;;;15.20;;
52608;SDS011;38503;48.544;12.142;2022-08-19T02:54:13;17.63;;;15.83;;
52608;SDS011;38503;48.544;12.142;2022-08-19T02:56:41;18.00;;;15.90;;
52608;SDS011;38503;48.544;12.142;2022-08-19T02:59:10;18.13;;;16.37;;
52608;SDS011;38503;48.544;12.142;2022-08-19T03:01:39;16.47;;;14.97;;
52608;SDS011;38503;48.544;12.142;2022-08-19T03:04:09;16.67;;;15.07;;
52608;SDS011;38503;48.544;12.142;2022-08-19T03:06:38;17.97;;;16.27;;
52608;SDS011;38503;48.544;12.142;2022-08-19T03:09:07;18.07;;;16.33;;
52608;SDS011;38503;48.544;12.142;2022-08-19T03:11:34;16.70;;;15.10;;
52608;SDS011;38503;48.544;12.142;2022-08-19T03:14:02;16.57;;;15.07;;
52608;SDS011;38503;48.544;12.142;2022-08-19T03:16:31;18.33;;;15.93;;
52608;SDS011;38503;48.544;12.142;2022-08-19T03:19:01;15.90;;;14.40;;
52608;SDS011;38503;48.544;12.142;2022-08-19T03:21:29;16.33;;;14.63;;
52608;SDS011;38503;48.544;12.142;2022-08-19T03:23:58;17.10;;;15.30;;
52608;SDS011;38503;48.544;12.142;2022-08-19T03:26:27;14.97;;;13.30;;
52608;SDS011;38503;48.544;12.142;2022-08-19T03:28:54;14.67;;;13.27;;
52608;SDS011;38503;48.544;12.142;2022-08-19T03:31:24;14.77;;;13.33;;
52608;SDS011;38503;48.544;12.142;2022-08-19T03:34:14;14.43;;;12.93;;
52608;SDS011;38503;48.544;12.142;2022-08-19T03:36:44;15.03;;;13.63;;
52608;SDS011;38503;48.544;12.142;2022-08-19T03:39:12;14.90;;;13.50;;
52608;SDS011;38503;48.544;12.142;2022-08-19T03:41:40;13.57;;;12.27;;
52608;SDS011;38503;48.544;12.142;2022-08-19T03:44:15;14.33;;;12.93;;
52608;SDS011;38503;48.544;12.142;2022-08-19T03:46:52;15.63;;;14.17;;
52608;SDS011;38503;48.544;12.142;2022-08-19T03:49:22;14.73;;;13.43;;
52608;SDS011;38503;48.544;12.142;2022-08-19T03:51:54;15.93;;;13.07;;
52608;SDS011;38503;48.544;12.142;2022-08-19T03:54:23;14.27;;;12.87;;
52608;SDS011;38503;48.544;12.142;2022-08-19T03:56:52;13.63;;;11.97;;
52608;SDS011;38503;48.544;12.142;2022-08-19T03:59:21;12.60;;;11.40;;
52608;SDS011;38503;48.544;12.142;2022-08-19T04:01:52;14.20;;;12.57;;
52608;SDS011;38503;48.544;12.142;2022-08-19T04:04:22;14.83;;;12.00;;
52608;SDS011;38503;48.544;12.142;2022-08-19T04:06:54;14.10;;;12.60;;
52608;SDS011;38503;48.544;12.142;2022-08-19T04:09:21;13.43;;;12.23;;
52608;SDS011;38503;48.544;12.142;2022-08-19T04:11:50;12.80;;;11.50;;
52608;SDS011;38503;48.544;12.142;2022-08-19T04:14:22;11.77;;;10.67;;
52608;SDS011;38503;48.544;12.142;2022-08-19T04:16:51;12.63;;;11.33;;
52608;SDS011;38503;48.544;12.142;2022-08-19T04:19:19;12.87;;;11.67;;
52608;SDS011;38503;48.544;12.142;2022-08-19T04:21:47;12.00;;;10.87;;
52608;SDS011;38503;48.544;12.142;2022-08-19T04:24:16;13.03;;;11.83;;
52608;SDS011;38503;48.544;12.142;2022-08-19T04:26:44;11.40;;;10.40;;
52608;SDS011;38503;48.544;12.142;2022-08-19T04:29:16;13.87;;;11.07;;
52608;SDS011;38503;48.544;12.142;2022-08-19T04:31:48;12.90;;;11.67;;
52608;SDS011;38503;48.544;12.142;2022-08-19T04:34:16;12.00;;;10.83;;
52608;SDS011;38503;48.544;12.142;2022-08-19T04:36:48;12.00;;;10.77;;
52608;SDS011;38503;48.544;12.142;2022-08-19T04:39:18;11.90;;;10.80;;
52608;SDS011;38503;48.544;12.142;2022-08-19T04:41:46;17.00;;;15.17;;
52608;SDS011;38503;48.544;12.142;2022-08-19T04:44:32;11.27;;;10.23;;
52608;SDS011;38503;48.544;12.142;2022-08-19T04:47:10;10.70;;;9.80;;
52608;SDS011;38503;48.544;12.142;2022-08-19T04:49:37;10.93;;;9.83;;
52608;SDS011;38503;48.544;12.142;2022-08-19T04:52:03;10.40;;;9.30;;
52608;SDS011;38503;48.544;12.142;2022-08-19T04:54:30;10.30;;;9.30;;
52608;SDS011;38503;48.544;12.142;2022-08-19T04:57:04;10.40;;;9.43;;
52608;SDS011;38503;48.544;12.142;2022-08-19T04:59:37;9.30;;;8.40;;
52608;SDS011;38503;48.544;12.142;2022-08-19T05:02:06;9.97;;;8.90;;
52608;SDS011;38503;48.544;12.142;2022-08-19T05:04:35;9.90;;;9.00;;
52608;SDS011;38503;48.544;12.142;2022-08-19T05:07:05;9.40;;;8.57;;
52608;SDS011;38503;48.544;12.142;2022-08-19T05:09:33;9.00;;;8.10;;
52608;SDS011;38503;48.544;12.142;2022-08-19T05:12:23;9.67;;;8.77;;
52608;SDS011;38503;48.544;12.142;2022-08-19T05:14:55;9.40;;;8.53;;
52608;SDS011;38503;48.544;12.142;2022-08-19T05:17:23;8.60;;;7.20;;
52608;SDS011;38503;48.544;12.142;2022-08-19T05:19:54;9.33;;;8.40;;
52608;SDS011;38503;48.544;12.142;2022-08-19T05:22:40;8.43;;;7.63;;
52608;SDS011;38503;48.544;12.142;2022-08-19T05:25:10;8.30;;;7.60;;
52608;SDS011;38503;48.544;12.142;2022-08-19T05:27:40;8.57;;;7.77;;
52608;SDS011;38503;48.544;12.142;2022-08-19T05:30:09;8.70;;;8.00;;
52608;SDS011;38503;48.544;12.142;2022-08-19T05:32:38;10.03;;;7.87;;
52608;SDS011;38503;48.544;12.142;2022-08-19T05:35:06;9.77;;;7.93;;
52608;SDS011;38503;48.544;12.142;2022-08-19T05:37:33;7.87;;;7.20;;
52608;SDS011;38503;48.544;12.142;2022-08-19T05:40:00;7.93;;;7.33;;
52608;SDS011;38503;48.544;12.142;2022-08-19T05:42:28;8.20;;;7.47;;
52608;SDS011;38503;48.544;12.142;2022-08-19T05:44:54;8.83;;;7.90;;
52608;SDS011;38503;48.544;12.142;2022-08-19T05:47:23;8.97;;;7.93;;
52608;SDS011;38503;48.544;12.142;2022-08-19T05:49:50;8.97;;;8.07;;
52608;SDS011;38503;48.544;12.142;2022-08-19T05:52:17;9.37;;;8.47;;
52608;SDS011;38503;48.544;12.142;2022-08-19T05:54:51;8.53;;;7.73;;
52608;SDS011;38503;48.544;12.142;2022-08-19T05:57:22;10.17;;;8.53;;
52608;SDS011;38503;48.544;12.142;2022-08-19T05:59:50;8.70;;;7.90;;
52608;SDS011;38503;48.544;12.142;2022-08-19T06:02:23;9.10;;;8.13;;
52608;SDS011;38503;48.544;12.142;2022-08-19T06:04:51;8.17;;;7.37;;
52608;SDS011;38503;48.544;12.142;2022-08-19T06:07:18;8.07;;;7.27;;
52608;SDS011;38503;48.544;12.142;2022-08-19T06:09:45;7.90;;;7.10;;
52608;SDS011;38503;48.544;12.142;2022-08-19T06:12:26;8.87;;;7.97;;
52608;SDS011;38503;48.544;12.142;2022-08-19T06:14:57;8.50;;;7.73;;
52608;SDS011;38503;48.544;12.142;2022-08-19T06:17:27;9.60;;;8.60;;
52608;SDS011;38503;48.544;12.142;2022-08-19T06:19:57;8.70;;;7.80;;
52608;SDS011;38503;48.544;12.142;2022-08-19T06:22:25;8.60;;;7.80;;
52608;SDS011;38503;48.544;12.142;2022-08-19T06:24:53;10.20;;;8.30;;
52608;SDS011;38503;48.544;12.142;2022-08-19T06:27:20;9.30;;;7.93;;
52608;SDS011;38503;48.544;12.142;2022-08-19T06:29:48;10.67;;;8.57;;
52608;SDS011;38503;48.544;12.142;2022-08-19T06:32:16;11.40;;;8.27;;
52608;SDS011;38503;48.544;12.142;2022-08-19T06:34:44;9.00;;;8.10;;
52608;SDS011;38503;48.544;12.142;2022-08-19T06:37:11;9.20;;;7.83;;
52608;SDS011;38503;48.544;12.142;2022-08-19T06:39:40;8.20;;;7.50;;
52608;SDS011;38503;48.544;12.142;2022-08-19T06:42:09;8.00;;;7.20;;
52608;SDS011;38503;48.544;12.142;2022-08-19T06:44:40;8.93;;;8.03;;
52608;SDS011;38503;48.544;12.142;2022-08-19T06:47:15;8.47;;;7.67;;
52608;SDS011;38503;48.544;12.142;2022-08-19T06:49:50;8.93;;;7.97;;
52608;SDS011;38503;48.544;12.142;2022-08-19T06:52:19;10.00;;;8.17;;
52608;SDS011;38503;48.544;12.142;2022-08-19T06:54:46;8.40;;;7.60;;
52608;SDS011;38503;48.544;12.142;2022-08-19T06:57:25;8.63;;;7.83;;
52608;SDS011;38503;48.544;12.142;2022-08-19T06:59:52;9.13;;;8.23;;
52608;SDS011;38503;48.544;12.142;2022-08-19T07:02:21;8.47;;;7.73;;
52608;SDS011;38503;48.544;12.142;2022-08-19T07:04:52;10.50;;;9.07;;
52608;SDS011;38503;48.544;12.142;2022-08-19T07:07:20;9.27;;;8.37;;
52608;SDS011;38503;48.544;12.142;2022-08-19T07:09:48;10.10;;;8.80;;
52608;SDS011;38503;48.544;12.142;2022-08-19T07:12:24;10.30;;;9.20;;
52608;SDS011;38503;48.544;12.142;2022-08-19T07:14:51;9.73;;;8.73;;
52608;SDS011;38503;48.544;12.142;2022-08-19T07:17:19;10.60;;;9.60;;
52608;SDS011;38503;48.544;12.142;2022-08-19T07:19:47;10.90;;;9.67;;
52608;SDS011;38503;48.544;12.142;2022-08-19T07:22:14;10.37;;;9.10;;
52608;SDS011;38503;48.544;12.142;2022-08-19T07:24:42;10.97;;;9.93;;
52608;SDS011;38503;48.544;12.142;2022-08-19T07:27:17;10.07;;;9.17;;
52608;SDS011;38503;48.544;12.142;2022-08-19T07:29:50;10.93;;;9.93;;
52608;SDS011;38503;48.544;12.142;2022-08-19T07:32:23;11.43;;;10.33;;
52608;SDS011;38503;48.544;12.142;2022-08-19T07:34:54;11.80;;;10.60;;
52608;SDS011;38503;48.544;12.142;2022-08-19T07:37:22;11.47;;;10.27;;
52608;SDS011;38503;48.544;12.142;2022-08-19T07:39:58;13.00;;;11.70;;
52608;SDS011;38503;48.544;12.142;2022-08-19T07:42:25;11.10;;;10.07;;
52608;SDS011;38503;48.544;12.142;2022-08-19T07:44:54;12.10;;;10.97;;
52608;SDS011;38503;48.544;12.142;2022-08-19T07:47:21;11.73;;;10.63;;
52608;SDS011;38503;48.544;12.142;2022-08-19T07:50:09;11.83;;;10.73;;
52608;SDS011;38503;48.544;12.142;2022-08-19T07:52:37;13.17;;;11.93;;
52608;SDS011;38503;48.544;12.142;2022-08-19T07:55:06;13.23;;;11.97;;
52608;SDS011;38503;48.544;12.142;2022-08-19T07:57:54;12.60;;;11.40;;
52608;SDS011;38503;48.544;12.142;2022-08-19T08:00:21;13.10;;;11.90;;
52608;SDS011;38503;48.544;12.142;2022-08-19T08:02:50;13.77;;;10.27;;
52608;SDS011;38503;48.544;12.142;2022-08-19T08:05:21;11.80;;;10.60;;
52608;SDS011;38503;48.544;12.142;2022-08-19T08:08:09;11.50;;;10.50;;
52608;SDS011;38503;48.544;12.142;2022-08-19T08:10:55;14.07;;;12.30;;
52608;SDS011;38503;48.544;12.142;2022-08-19T08:13:23;13.70;;;12.33;;
52608;SDS011;38503;48.544;12.142;2022-08-19T08:15:51;13.03;;;11.90;;
52608;SDS011;38503;48.544;12.142;2022-08-19T08:18:21;14.23;;;12.53;;
52608;SDS011;38503;48.544;12.142;2022-08-19T08:20:55;15.00;;;13.60;;
52608;SDS011;38503;48.544;12.142;2022-08-19T08:23:24;13.57;;;12.17;;
52608;SDS011;38503;48.544;12.142;2022-08-19T08:25:53;15.10;;;13.80;;
52608;SDS011;38503;48.544;12.142;2022-08-19T08:28:23;14.23;;;12.93;;
52608;SDS011;38503;48.544;12.142;2022-08-19T08:30:55;16.27;;;14.67;;
52608;SDS011;38503;48.544;12.142;2022-08-19T08:33:24;17.37;;;15.77;;
52608;SDS011;38503;48.544;12.142;2022-08-19T08:36:06;19.27;;;17.27;;
52608;SDS011;38503;48.544;12.142;2022-08-19T08:38:33;18.70;;;16.90;;
52608;SDS011;38503;48.544;12.142;2022-08-19T08:43:40;19.90;;;18.00;;
52608;SDS011;38503;48.544;12.142;2022-08-19T08:46:15;22.10;;;20.00;;
52608;SDS011;38503;48.544;12.142;2022-08-19T08:48:59;22.93;;;20.73;;
52608;SDS011;38503;48.544;12.142;2022-08-19T08:51:42;23.97;;;21.67;;
52608;SDS011;38503;48.544;12.142;2022-08-19T08:54:24;23.90;;;21.37;;
52608;SDS011;38503;48.544;12.142;2022-08-19T08:57:02;25.03;;;22.67;;
52608;SDS011;38503;48.544;12.142;2022-08-19T08:59:34;25.40;;;23.07;;
52608;SDS011;38503;48.544;12.142;2022-08-19T09:02:03;26.37;;;23.77;;
52608;SDS011;38503;48.544;12.142;2022-08-19T09:04:30;25.63;;;23.00;;
52608;SDS011;38503;48.544;12.142;2022-08-19T09:10:07;19.87;;;17.80;;
52608;SDS011;38503;48.544;12.142;2022-08-19T09:15:36;17.03;;;15.47;;
52608;SDS011;38503;48.544;12.142;2022-08-19T09:18:12;17.57;;;15.77;;
52608;SDS011;38503;48.544;12.142;2022-08-19T09:20:44;17.67;;;15.97;;
52608;SDS011;38503;48.544;12.142;2022-08-19T09:23:14;17.40;;;15.63;;
52608;SDS011;38503;48.544;12.142;2022-08-19T09:25:41;19.30;;;16.83;;
52608;SDS011;38503;48.544;12.142;2022-08-19T09:28:08;24.93;;;17.67;;
52608;SDS011;38503;48.544;12.142;2022-08-19T09:30:48;23.07;;;18.47;;
52608;SDS011;38503;48.544;12.142;2022-08-19T09:33:18;27.17;;;21.63;;
52608;SDS011;38503;48.544;12.142;2022-08-19T09:35:46;25.97;;;21.80;;
52608;SDS011;38503;48.544;12.142;2022-08-19T09:38:18;23.13;;;20.63;;
52608;SDS011;38503;48.544;12.142;2022-08-19T09:40:45;22.80;;;20.47;;
52608;SDS011;38503;48.544;12.142;2022-08-19T09:43:11;23.20;;;19.80;;
52608;SDS011;38503;48.544;12.142;2022-08-19T09:45:38;24.63;;;20.80;;
52608;SDS011;38503;48.544;12.142;2022-08-19T09:48:05;22.17;;;19.77;;
52608;SDS011;38503;48.544;12.142;2022-08-19T09:50:34;22.37;;;20.07;;
52608;SDS011;38503;48.544;12.142;2022-08-19T09:53:17;22.50;;;20.10;;
52608;SDS011;38503;48.544;12.142;2022-08-19T09:55:44;22.43;;;19.80;;
52608;SDS011;38503;48.544;12.142;2022-08-19T09:58:11;22.20;;;19.83;;
52608;SDS011;38503;48.544;12.142;2022-08-19T10:00:38;23.80;;;20.87;;
52608;SDS011;38503;48.544;12.142;2022-08-19T10:03:05;22.47;;;20.13;;
52608;SDS011;38503;48.544;12.142;2022-08-19T10:05:33;23.53;;;21.10;;
52608;SDS011;38503;48.544;12.142;2022-08-19T10:08:28;22.57;;;20.23;;
52608;SDS011;38503;48.544;12.142;2022-08-19T10:10:59;22.87;;;20.30;;
52608;SDS011;38503;48.544;12.142;2022-08-19T10:13:47;23.83;;;21.33;;
52608;SDS011;38503;48.544;12.142;2022-08-19T10:16:16;23.17;;;20.77;;
52608;SDS011;38503;48.544;12.142;2022-08-19T10:18:51;22.97;;;19.80;;
52608;SDS011;38503;48.544;12.142;2022-08-19T10:21:25;21.13;;;18.83;;
52608;SDS011;38503;48.544;12.142;2022-08-19T10:23:59;21.00;;;18.90;;
52608;SDS011;38503;48.544;12.142;2022-08-19T10:26:30;21.00;;;18.37;;
52608;SDS011;38503;48.544;12.142;2022-08-19T10:28:59;20.17;;;18.17;;
52608;SDS011;38503;48.544;12.142;2022-08-19T10:31:28;20.47;;;18.57;;
52608;SDS011;38503;48.544;12.142;2022-08-19T10:34:16;18.87;;;16.93;;
52608;SDS011;38503;48.544;12.142;2022-08-19T10:36:52;20.00;;;18.00;;
52608;SDS011;38503;48.544;12.142;2022-08-19T10:39:26;18.73;;;16.93;;
52608;SDS011;38503;48.544;12.142;2022-08-19T10:42:06;18.43;;;16.73;;
52608;SDS011;38503;48.544;12.142;2022-08-19T10:44:33;19.90;;;18.00;;
52608;SDS011;38503;48.544;12.142;2022-08-19T10:47:02;19.63;;;17.73;;
52608;SDS011;38503;48.544;12.142;2022-08-19T10:49:42;19.50;;;17.60;;
52608;SDS011;38503;48.544;12.142;2022-08-19T10:52:28;19.87;;;17.83;;
52608;SDS011;38503;48.544;12.142;2022-08-19T10:55:05;20.27;;;18.27;;
52608;SDS011;38503;48.544;12.142;2022-08-19T10:57:55;21.73;;;19.53;;
52608;SDS011;38503;48.544;12.142;2022-08-19T11:00:27;20.63;;;18.63;;
52608;SDS011;38503;48.544;12.142;2022-08-19T11:02:57;20.70;;;18.60;;
52608;SDS011;38503;48.544;12.142;2022-08-19T11:05:24;20.30;;;18.20;;
52608;SDS011;38503;48.544;12.142;2022-08-19T11:07:50;21.33;;;19.13;;
52608;SDS011;38503;48.544;12.142;2022-08-19T11:10:18;20.70;;;18.63;;
52608;SDS011;38503;48.544;12.142;2022-08-19T11:12:47;20.90;;;18.47;;
52608;SDS011;38503;48.544;12.142;2022-08-19T11:15:16;19.07;;;17.20;;
52608;SDS011;38503;48.544;12.142;2022-08-19T11:17:43;20.20;;;18.30;;
52608;SDS011;38503;48.544;12.142;2022-08-19T11:20:11;20.63;;;17.90;;
52608;SDS011;38503;48.544;12.142;2022-08-19T11:22:40;20.70;;;18.73;;
52608;SDS011;38503;48.544;12.142;2022-08-19T11:25:08;19.60;;;17.67;;
52608;SDS011;38503;48.544;12.142;2022-08-19T11:27:37;20.10;;;18.10;;
52608;SDS011;38503;48.544;12.142;2022-08-19T11:33:22;19.63;;;17.63;;
52608;SDS011;38503;48.544;12.142;2022-08-19T11:35:49;19.47;;;17.60;;
52608;SDS011;38503;48.544;12.142;2022-08-19T11:38:16;18.77;;;16.93;;
52608;SDS011;38503;48.544;12.142;2022-08-19T11:40:42;15.43;;;13.83;;
52608;SDS011;38503;48.544;12.142;2022-08-19T11:43:10;14.73;;;13.33;;
52608;SDS011;38503;48.544;12.142;2022-08-19T11:45:36;12.73;;;11.53;;
52608;SDS011;38503;48.544;12.142;2022-08-19T11:48:03;12.13;;;10.97;;
52608;SDS011;38503;48.544;12.142;2022-08-19T11:50:30;10.53;;;9.63;;
52608;SDS011;38503;48.544;12.142;2022-08-19T11:52:57;11.83;;;10.77;;
52608;SDS011;38503;48.544;12.142;2022-08-19T11:55:24;11.03;;;10.00;;
52608;SDS011;38503;48.544;12.142;2022-08-19T11:57:51;10.77;;;9.77;;
52608;SDS011;38503;48.544;12.142;2022-08-19T12:00:18;10.07;;;9.17;;
52608;SDS011;38503;48.544;12.142;2022-08-19T12:02:45;11.73;;;10.63;;
52608;SDS011;38503;48.544;12.142;2022-08-19T12:05:12;11.90;;;10.70;;
52608;SDS011;38503;48.544;12.142;2022-08-19T12:07:39;12.37;;;11.27;;
52608;SDS011;38503;48.544;12.142;2022-08-19T12:10:07;12.17;;;10.97;;
52608;SDS011;38503;48.544;12.142;2022-08-19T12:12:36;10.90;;;10.00;;
52608;SDS011;38503;48.544;12.142;2022-08-19T12:15:09;11.17;;;10.17;;
52608;SDS011;38503;48.544;12.142;2022-08-19T12:17:37;10.83;;;9.73;;
52608;SDS011;38503;48.544;12.142;2022-08-19T12:20:07;14.57;;;13.17;;
52608;SDS011;38503;48.544;12.142;2022-08-19T12:22:37;11.20;;;10.20;;
52608;SDS011;38503;48.544;12.142;2022-08-19T12:25:04;11.33;;;10.30;;
52608;SDS011;38503;48.544;12.142;2022-08-19T12:27:32;12.67;;;11.47;;
52608;SDS011;38503;48.544;12.142;2022-08-19T12:30:19;12.37;;;11.23;;
52608;SDS011;38503;48.544;12.142;2022-08-19T12:32:45;12.87;;;11.67;;
52608;SDS011;38503;48.544;12.142;2022-08-19T12:35:12;13.67;;;12.37;;
52608;SDS011;38503;48.544;12.142;2022-08-19T12:37:40;14.23;;;12.87;;
52608;SDS011;38503;48.544;12.142;2022-08-19T12:40:08;12.27;;;11.17;;
52608;SDS011;38503;48.544;12.142;2022-08-19T12:42:38;12.17;;;11.03;;
52608;SDS011;38503;48.544;12.142;2022-08-19T12:45:09;10.67;;;9.67;;
52608;SDS011;38503;48.544;12.142;2022-08-19T12:47:37;11.00;;;10.00;;
52608;SDS011;38503;48.544;12.142;2022-08-19T12:50:08;10.20;;;9.40;;
52608;SDS011;38503;48.544;12.142;2022-08-19T12:52:36;11.00;;;10.00;;
52608;SDS011;38503;48.544;12.142;2022-08-19T12:55:04;11.20;;;10.20;;
52608;SDS011;38503;48.544;12.142;2022-08-19T12:57:32;11.30;;;10.30;;
52608;SDS011;38503;48.544;12.142;2022-08-19T13:02:37;10.75;;;9.75;;
52608;SDS011;38503;48.544;12.142;2022-08-19T13:05:05;9.70;;;8.80;;
52608;SDS011;38503;48.544;12.142;2022-08-19T13:07:35;10.13;;;9.13;;
52608;SDS011;38503;48.544;12.142;2022-08-19T13:10:07;9.47;;;8.67;;
52608;SDS011;38503;48.544;12.142;2022-08-19T13:12:35;10.60;;;9.50;;
52608;SDS011;38503;48.544;12.142;2022-08-19T13:15:02;10.23;;;9.23;;
52608;SDS011;38503;48.544;12.142;2022-08-19T13:17:36;10.40;;;8.50;;
52608;SDS011;38503;48.544;12.142;2022-08-19T13:20:05;8.90;;;8.17;;
52608;SDS011;38503;48.544;12.142;2022-08-19T13:22:34;8.03;;;7.37;;
52608;SDS011;38503;48.544;12.142;2022-08-19T13:25:05;8.93;;;8.13;;
52608;SDS011;38503;48.544;12.142;2022-08-19T13:27:33;8.67;;;7.93;;
52608;SDS011;38503;48.544;12.142;2022-08-19T13:30:00;8.97;;;8.10;;
52608;SDS011;38503;48.544;12.142;2022-08-19T13:32:47;9.13;;;8.30;;
52608;SDS011;38503;48.544;12.142;2022-08-19T13:35:33;9.93;;;9.10;;
52608;SDS011;38503;48.544;12.142;2022-08-19T13:38:00;10.40;;;9.40;;
52608;SDS011;38503;48.544;12.142;2022-08-19T13:40:37;9.27;;;8.47;;
52608;SDS011;38503;48.544;12.142;2022-08-19T13:43:06;9.13;;;8.13;;
52608;SDS011;38503;48.544;12.142;2022-08-19T13:45:48;8.37;;;7.67;;
52608;SDS011;38503;48.544;12.142;2022-08-19T13:48:18;8.73;;;7.93;;
52608;SDS011;38503;48.544;12.142;2022-08-19T13:50:45;8.77;;;8.03;;
52608;SDS011;38503;48.544;12.142;2022-08-19T13:53:14;8.73;;;7.93;;
52608;SDS011;38503;48.544;12.142;2022-08-19T13:55:42;9.00;;;7.77;;
52608;SDS011;38503;48.544;12.142;2022-08-19T13:58:10;9.67;;;8.80;;
52608;SDS011;38503;48.544;12.142;2022-08-19T14:00:40;9.07;;;8.37;;
52608;SDS011;38503;48.544;12.142;2022-08-19T14:03:09;9.30;;;8.40;;
52608;SDS011;38503;48.544;12.142;2022-08-19T14:05:36;8.27;;;7.47;;
52608;SDS011;38503;48.544;12.142;2022-08-19T14:08:04;8.00;;;7.30;;
52608;SDS011;38503;48.544;12.142;2022-08-19T14:10:31;8.70;;;8.00;;
52608;SDS011;38503;48.544;12.142;2022-08-19T14:12:59;8.10;;;7.40;;
52608;SDS011;38503;48.544;12.142;2022-08-19T14:15:28;8.80;;;8.03;;
52608;SDS011;38503;48.544;12.142;2022-08-19T14:17:55;8.80;;;8.03;;
52608;SDS011;38503;48.544;12.142;2022-08-19T14:20:22;9.03;;;8.27;;
52608;SDS011;38503;48.544;12.142;2022-08-19T14:22:51;8.87;;;8.17;;
52608;SDS011;38503;48.544;12.142;2022-08-19T14:25:25;9.77;;;8.87;;
52608;SDS011;38503;48.544;12.142;2022-08-19T14:27:53;9.00;;;8.20;;
52608;SDS011;38503;48.544;12.142;2022-08-19T14:30:22;8.30;;;7.50;;
52608;SDS011;38503;48.544;12.142;2022-08-19T14:32:55;7.27;;;6.67;;
52608;SDS011;38503;48.544;12.142;2022-08-19T14:35:24;10.93;;;9.77;;
52608;SDS011;38503;48.544;12.142;2022-08-19T14:37:53;8.57;;;7.77;;
52608;SDS011;38503;48.544;12.142;2022-08-19T14:40:23;7.93;;;7.33;;
52608;SDS011;38503;48.544;12.142;2022-08-19T14:42:53;8.53;;;7.80;;
52608;SDS011;38503;48.544;12.142;2022-08-19T14:45:26;8.37;;;7.63;;
52608;SDS011;38503;48.544;12.142;2022-08-19T14:47:53;9.23;;;8.43;;
52608;SDS011;38503;48.544;12.142;2022-08-19T14:50:21;7.70;;;7.10;;
52608;SDS011;38503;48.544;12.142;2022-08-19T14:52:48;7.80;;;7.10;;